Bourton on the Water, United Kingdom
Current Conditions -  °F | °C
As of 7:50 PM on Thursday 29 Jan 2015 (Local Time) from EGVN Reporting Station
Scattered Clouds Scattered Clouds  
Wind Chill:   Ceiling: Unl
Heat Index:   Visibility: 6mi
Dew Point: -1°   Wind: 5mph
Humidity: 81%   Direction: 230°SW
Pressure: 28.91"   Gusts: NA
Location:  51.87°N, 1.75°W
Report Text: EGVN 291950Z 23004KT 9999 FEW009 FEW018CB SCT030 02/M01 Q0979 BLU TEMPO 2500 -SHSN SCT018CB YLO1
Loading
Personal Weather Stations






























Interactive Weather Map New forecast layout! Learn more

10-Day Weather Forecast

Advertisements
Track Severe Weather on mobile